Time;durP1;ratioP1;P1;durP2;ratioP2;P2;SDS_P1;SDS_P2;PMS_P1;PMS_P2;Temp;Humidity;BMP_temperature;BMP_pressure;BME280_temperature;BME280_humidity;BME280_pressure;Samples;Min_cycle;Max_cycle;Signal;HPM_P1;HPM_P2
2021/03/09 00:02:53;;;;;;;35.80;21.63;;;4.50;91.80;;;;;;6096051;23;20023;-92
2021/03/09 00:08:05;;;;;;;31.38;20.85;;;4.50;91.90;;;;;;6189513;23;20393;-93
2021/03/09 00:10:47;;;;;;;31.42;20.92;;;4.50;91.80;;;;;;6195393;23;20017;-94
2021/03/09 00:14:05;;;;;;;32.08;21.90;;;4.50;91.60;;;;;;6216419;23;20028;-94
2021/03/09 00:19:23;;;;;;;33.25;21.55;;;4.40;91.90;;;;;;6215945;23;20445;-95
2021/03/09 00:25:11;;;;;;;32.60;21.20;;;4.40;91.90;;;;;;6247357;23;20074;-93
2021/03/09 00:28:18;;;;;;;32.53;21.20;;;4.40;92.20;;;;;;6247348;23;20441;-95
2021/03/09 00:30:43;;;;;;;36.47;21.65;;;4.40;91.90;;;;;;6247576;23;20020;-93
2021/03/09 00:33:09;;;;;;;33.10;21.15;;;4.40;91.80;;;;;;6247382;23;20027;-94
2021/03/09 00:35:35;;;;;;;36.10;22.00;;;4.40;91.80;;;;;;6247345;23;20098;-94
2021/03/09 00:38:18;;;;;;;37.97;22.60;;;4.40;91.90;;;;;;6247312;23;20016;-95
2021/03/09 00:40:44;;;;;;;36.08;22.80;;;4.50;92.10;;;;;;6247254;23;20020;-93
2021/03/09 00:43:21;;;;;;;39.67;22.95;;;4.40;91.90;;;;;;6246612;23;20027;-93
2021/03/09 00:45:54;;;;;;;34.40;21.35;;;4.40;91.90;;;;;;6247398;23;20047;-93
2021/03/09 00:48:19;;;;;;;37.38;23.20;;;4.40;92.00;;;;;;6247321;23;20078;-92
2021/03/09 00:50:51;;;;;;;36.55;22.73;;;4.30;91.90;;;;;;6247814;23;20020;-93
2021/03/09 00:53:17;;;;;;;35.92;22.33;;;4.30;92.00;;;;;;6247500;23;20017;-94
2021/03/09 00:55:43;;;;;;;35.22;22.42;;;4.40;92.00;;;;;;6246316;23;20031;-95
2021/03/09 00:58:18;;;;;;;36.50;22.38;;;4.30;92.00;;;;;;6247199;23;20043;-94
2021/03/09 01:00:48;;;;;;;37.78;23.05;;;4.40;92.00;;;;;;6248605;23;20097;-93
2021/03/09 01:03:22;;;;;;;37.85;23.15;;;4.30;92.00;;;;;;6248637;23;20016;-94
2021/03/09 01:06:00;;;;;;;37.53;22.02;;;4.40;92.20;;;;;;6249418;23;20032;-93
2021/03/09 01:08:28;;;;;;;37.30;22.80;;;4.40;92.20;;;;;;6249642;23;20020;-93
2021/03/09 01:10:54;;;;;;;34.78;23.02;;;4.40;92.10;;;;;;6249374;23;20445;-92
2021/03/09 01:13:20;;;;;;;35.72;22.77;;;4.40;92.10;;;;;;6261004;23;20027;-93
2021/03/09 01:16:04;;;;;;;37.65;23.20;;;4.40;92.10;;;;;;6267224;23;20004;-94
2021/03/09 01:18:30;;;;;;;38.78;23.17;;;4.40;92.30;;;;;;6251409;23;20019;-93
2021/03/09 01:20:56;;;;;;;37.63;22.70;;;4.40;92.10;;;;;;6249263;23;20095;-93
2021/03/09 01:23:21;;;;;;;37.30;22.95;;;4.40;92.10;;;;;;6248878;23;20095;-92
2021/03/09 01:26:03;;;;;;;38.65;23.67;;;4.40;92.20;;;;;;6248204;23;20016;-94
2021/03/09 01:35:45;;;;;;;39.85;23.20;;;4.30;92.30;;;;;;6244492;23;20020;-94
2021/03/09 01:48:46;;;;;;;35.05;20.30;;;4.30;92.30;;;;;;6155657;23;20022;-93
2021/03/09 01:54:52;;;;;;;;;;;4.30;92.30;;;;;;6156364;23;20017;-90
2021/03/09 01:57:47;;;;;;;34.30;20.25;;;4.30;92.20;;;;;;6155823;23;19923;-93
2021/03/09 02:00:46;;;;;;;31.35;19.90;;;4.30;92.30;;;;;;6155887;23;20018;-94
2021/03/09 02:03:22;;;;;;;33.75;20.50;;;4.30;92.30;;;;;;6155830;23;20017;-91
2021/03/09 02:05:48;;;;;;;34.60;20.10;;;4.30;92.20;;;;;;6202995;23;20020;-91
2021/03/09 02:08:20;;;;;;;33.33;19.73;;;4.30;92.30;;;;;;6248478;23;20389;-92
2021/03/09 02:10:49;;;;;;;32.00;20.13;;;4.30;92.30;;;;;;6252732;23;20390;-91
2021/03/09 02:13:54;;;;;;;33.38;20.35;;;4.30;92.30;;;;;;6249750;23;20031;-92
2021/03/09 02:16:42;;;;;;;31.80;19.10;;;4.30;92.40;;;;;;6235763;23;20079;-94
2021/03/09 02:19:52;;;;;;;30.70;18.88;;;4.30;92.40;;;;;;6248412;23;20057;-91
2021/03/09 02:22:50;;;;;;;30.27;18.58;;;4.30;92.40;;;;;;6247378;23;20020;-89
2021/03/09 02:26:02;;;;;;;31.95;19.92;;;4.30;92.50;;;;;;6247969;23;20015;-94
2021/03/09 02:31:54;;;;;;;30.48;18.52;;;4.30;92.50;;;;;;6245950;23;20098;-91
2021/03/09 02:34:49;;;;;;;29.25;17.70;;;4.30;92.50;;;;;;6247859;23;20013;-94
2021/03/09 02:45:32;;;;;;;29.20;19.00;;;4.30;92.50;;;;;;6241204;23;20024;-94
2021/03/09 02:48:00;;;;;;;30.95;18.70;;;4.40;92.60;;;;;;6248265;23;20012;-91
2021/03/09 02:50:27;;;;;;;28.67;18.05;;;4.40;92.60;;;;;;6242294;23;20020;-93
2021/03/09 02:53:20;;;;;;;31.20;18.80;;;4.40;92.60;;;;;;6248038;23;20016;-92
2021/03/09 02:55:50;;;;;;;27.90;17.75;;;4.40;92.60;;;;;;6243244;23;20039;-93
2021/03/09 02:58:21;;;;;;;28.38;17.77;;;4.40;92.60;;;;;;6247557;23;20020;-91
2021/03/09 03:00:51;;;;;;;27.58;17.65;;;4.40;92.60;;;;;;6247922;23;20039;-92
2021/03/09 03:03:54;;;;;;;26.02;17.73;;;4.40;92.60;;;;;;6247540;23;20020;-93
2021/03/09 03:06:21;;;;;;;27.10;17.50;;;4.50;92.70;;;;;;6247296;23;20027;-90
2021/03/09 03:08:50;;;;;;;30.45;18.25;;;4.40;92.60;;;;;;6247711;23;20049;-95
2021/03/09 03:11:38;;;;;;;26.98;17.08;;;4.40;92.60;;;;;;6247649;23;20429;-92
2021/03/09 03:14:24;;;;;;;;;;;;;;;;;;;;;
2021/03/09 03:17:19;;;;;;;27.33;16.20;;;4.40;92.70;;;;;;6251633;23;20018;-93
2021/03/09 03:20:00;;;;;;;26.92;17.15;;;4.40;92.60;;;;;;6256585;23;20020;-94
2021/03/09 03:22:45;;;;;;;26.95;17.20;;;4.50;92.70;;;;;;6247640;23;20024;-96
2021/03/09 03:25:21;;;;;;;27.10;17.17;;;4.50;92.70;;;;;;6247209;23;20027;-93
2021/03/09 03:27:49;;;;;;;26.52;16.33;;;4.50;92.70;;;;;;6247716;23;20022;-95
2021/03/09 03:30:22;;;;;;;25.23;15.98;;;4.50;92.70;;;;;;6247786;23;20018;-94
2021/03/09 03:32:53;;;;;;;24.38;16.10;;;4.50;92.70;;;;;;6247818;23;20099;-94
2021/03/09 03:35:49;;;;;;;25.85;16.13;;;4.50;92.60;;;;;;6247564;23;20031;-94
2021/03/09 03:38:25;;;;;;;26.08;15.75;;;4.60;92.70;;;;;;6246786;23;20020;-95
2021/03/09 03:41:41;;;;;;;27.25;16.45;;;4.60;92.70;;;;;;6217059;23;20460;-95
2021/03/09 03:44:19;;;;;;;24.10;15.25;;;4.50;92.60;;;;;;6246993;23;20019;-95
2021/03/09 03:47:02;;;;;;;24.95;15.70;;;4.50;92.60;;;;;;6247462;23;20020;-94
2021/03/09 03:49:29;;;;;;;27.73;15.70;;;4.60;92.70;;;;;;6240862;23;20433;-92
2021/03/09 03:52:12;;;;;;;27.40;16.02;;;4.50;92.60;;;;;;6247066;23;20040;-93
2021/03/09 03:55:02;;;;;;;23.90;14.93;;;4.60;92.70;;;;;;6247921;23;20016;-92
2021/03/09 03:57:55;;;;;;;25.27;15.85;;;4.50;92.70;;;;;;6246274;23;20356;-93
2021/03/09 04:00:23;;;;;;;23.58;15.52;;;4.60;92.70;;;;;;6247390;23;20027;-92
2021/03/09 04:02:51;;;;;;;27.48;15.95;;;4.60;93.00;;;;;;6248184;23;20027;-94
2021/03/09 04:05:37;;;;;;;24.83;15.85;;;4.60;92.70;;;;;;6247164;23;20445;-94
2021/03/09 04:08:06;;;;;;;27.30;16.05;;;4.60;92.70;;;;;;6248233;23;20028;-93
2021/03/09 04:10:35;;;;;;;25.58;16.60;;;4.60;92.60;;;;;;6221635;23;20026;-95
2021/03/09 04:13:17;;;;;;;23.45;14.68;;;4.60;92.70;;;;;;6247581;23;20016;-94
2021/03/09 04:15:44;;;;;;;27.83;17.25;;;4.60;92.80;;;;;;6247481;23;20119;-95
2021/03/09 04:18:45;;;;;;;25.35;15.30;;;4.60;92.70;;;;;;6246887;23;20027;-95
2021/03/09 04:21:33;;;;;;;26.67;15.68;;;4.60;92.70;;;;;;6212704;23;20028;-96
2021/03/09 04:24:16;;;;;;;26.50;16.92;;;4.60;92.80;;;;;;6251451;23;20436;-93
2021/03/09 04:26:52;;;;;;;25.73;16.90;;;4.70;92.80;;;;;;6231049;23;20438;-92
2021/03/09 04:29:50;;;;;;;29.02;16.75;;;4.60;92.80;;;;;;6246049;23;20028;-92
2021/03/09 04:32:50;;;;;;;28.00;17.63;;;4.70;92.80;;;;;;6246673;23;20023;-95
2021/03/09 04:35:19;;;;;;;27.80;17.35;;;4.60;92.80;;;;;;6246142;23;20066;-94
2021/03/09 04:37:48;;;;;;;28.27;17.27;;;4.60;92.70;;;;;;6246268;23;20460;-96
2021/03/09 04:40:14;;;;;;;27.55;17.25;;;4.70;92.80;;;;;;6246314;23;20452;-93
2021/03/09 04:42:40;;;;;;;30.20;18.33;;;4.70;92.80;;;;;;6246233;23;20012;-93
2021/03/09 04:45:12;;;;;;;30.35;17.75;;;4.70;92.80;;;;;;6246435;23;20035;-93
2021/03/09 04:47:50;;;;;;;30.40;17.95;;;4.70;92.80;;;;;;6246601;23;20018;-95
2021/03/09 04:50:21;;;;;;;33.22;19.65;;;4.70;92.90;;;;;;6246034;23;20394;-94
2021/03/09 04:52:50;;;;;;;25.83;17.65;;;4.70;92.90;;;;;;6247504;23;20341;-93
2021/03/09 04:55:25;;;;;;;26.25;16.23;;;4.70;92.80;;;;;;6216693;23;20453;-93
2021/03/09 04:57:51;;;;;;;26.35;16.45;;;4.70;92.90;;;;;;6245684;23;20031;-92
2021/03/09 05:00:32;;;;;;;28.00;18.35;;;4.70;92.80;;;;;;6245847;23;20012;-92
2021/03/09 05:03:13;;;;;;;26.33;16.10;;;4.70;92.80;;;;;;6245882;23;20020;-91
2021/03/09 05:05:51;;;;;;;25.77;16.93;;;4.70;92.80;;;;;;6247427;23;20031;-92
2021/03/09 05:08:20;;;;;;;29.70;18.33;;;4.70;92.90;;;;;;6247812;23;20273;-91
2021/03/09 05:10:49;;;;;;;23.73;15.70;;;4.70;92.90;;;;;;6247234;23;20012;-91
2021/03/09 05:13:23;;;;;;;24.55;16.42;;;4.70;92.80;;;;;;6246372;23;20016;-90
2021/03/09 05:15:49;;;;;;;26.10;16.98;;;4.70;92.80;;;;;;6246225;23;20044;-89
2021/03/09 05:18:15;;;;;;;23.27;15.95;;;4.70;92.70;;;;;;6246683;23;20023;-91
2021/03/09 05:20:51;;;;;;;27.73;18.10;;;4.80;92.70;;;;;;6253750;23;20016;-89
2021/03/09 05:23:35;;;;;;;30.92;19.60;;;4.70;93.10;;;;;;6227971;23;20023;-91
2021/03/09 05:29:58;;;;;;;22.75;15.60;;;4.80;92.80;;;;;;6216310;23;20019;-92
2021/03/09 05:32:48;;;;;;;27.25;17.65;;;4.80;92.70;;;;;;6215516;23;20337;-91
2021/03/09 05:36:31;;;;;;;31.20;19.92;;;4.80;92.80;;;;;;6154362;23;20056;-91
2021/03/09 05:39:22;;;;;;;24.70;17.27;;;4.80;92.80;;;;;;6153805;23;20013;-91
2021/03/09 05:42:47;;;;;;;34.97;21.38;;;4.80;92.70;;;;;;6135588;23;20023;-90
2021/03/09 05:44:55;;;;;;;25.23;17.15;;;4.90;92.80;;;;;;6142014;23;20014;-93
2021/03/09 05:47:21;;;;;;;42.42;25.20;;;4.80;92.80;;;;;;6155288;23;20080;-92
2021/03/09 05:49:48;;;;;;;24.55;16.42;;;4.90;92.80;;;;;;6168957;23;20091;-91
2021/03/09 05:53:07;;;;;;;23.55;16.48;;;4.90;92.80;;;;;;6217443;23;20032;-90
2021/03/09 05:56:05;;;;;;;24.15;15.65;;;4.90;92.70;;;;;;6125977;23;20022;-91
2021/03/09 05:58:49;;;;;;;52.38;26.23;;;4.90;92.80;;;;;;6125814;23;20443;-93
2021/03/09 06:01:15;;;;;;;35.45;21.60;;;4.90;92.70;;;;;;6125183;23;20052;-91
2021/03/09 06:03:43;;;;;;;42.47;23.23;;;4.90;92.80;;;;;;6126203;23;20025;-93
2021/03/09 06:06:25;;;;;;;38.42;24.15;;;4.90;92.90;;;;;;6125355;23;20018;-92
2021/03/09 06:09:33;;;;;;;35.90;23.00;;;5.00;92.90;;;;;;6126393;23;20085;-92
2021/03/09 06:12:07;;;;;;;26.70;17.20;;;5.00;93.00;;;;;;6101564;23;20017;-92
2021/03/09 06:14:55;;;;;;;48.38;28.27;;;5.00;92.90;;;;;;6126203;23;20024;-92
2021/03/09 06:17:28;;;;;;;27.80;18.40;;;5.00;93.00;;;;;;6125328;23;20014;-91
2021/03/09 06:19:55;;;;;;;57.17;28.73;;;5.00;92.90;;;;;;6125488;23;20363;-91
2021/03/09 06:22:37;;;;;;;41.35;24.67;;;5.00;92.90;;;;;;6125284;23;20010;-88
2021/03/09 06:25:04;;;;;;;52.85;26.70;;;5.10;93.00;;;;;;6124265;23;20186;-82
2021/03/09 06:27:31;;;;;;;39.33;22.23;;;5.10;93.00;;;;;;6123021;23;20026;-81
2021/03/09 06:29:59;;;;;;;66.90;28.05;;;5.10;93.00;;;;;;6199024;23;20016;-82
2021/03/09 06:32:25;;;;;;;81.47;31.67;;;5.10;93.00;;;;;;6216354;23;20013;-82
2021/03/09 06:34:54;;;;;;;91.95;29.38;;;5.10;93.10;;;;;;6215694;23;20087;-88
2021/03/09 06:37:26;;;;;;;94.13;28.90;;;5.10;93.20;;;;;;6215385;23;20017;-84
2021/03/09 06:39:59;;;;;;;42.28;24.30;;;5.10;93.20;;;;;;6215955;23;20017;-90
2021/03/09 06:42:31;;;;;;;58.58;25.58;;;5.20;93.20;;;;;;6216661;23;20040;-86
2021/03/09 06:45:03;;;;;;;63.17;29.05;;;5.20;93.10;;;;;;6211379;23;20017;-90
2021/03/09 06:47:49;;;;;;;68.20;29.07;;;5.20;93.10;;;;;;6162950;23;20361;-88
2021/03/09 06:58:45;;;;;;;78.50;30.92;;;5.20;93.00;;;;;;6056847;23;20181;-90
2021/03/09 07:05:13;;;;;;;54.88;27.65;;;5.30;93.10;;;;;;6038489;23;20479;-88
2021/03/09 07:07:58;;;;;;;84.10;32.28;;;5.30;93.00;;;;;;6037582;23;20023;-87
2021/03/09 07:10:30;;;;;;;85.03;32.28;;;5.30;93.10;;;;;;6034817;23;20098;-88
2021/03/09 07:13:42;;;;;;;66.90;30.08;;;5.30;93.20;;;;;;6034602;23;20023;-89
2021/03/09 07:16:28;;;;;;;94.65;33.17;;;5.30;93.30;;;;;;6029583;23;20023;-89
2021/03/09 07:19:10;;;;;;;79.85;31.50;;;5.30;93.30;;;;;;6035780;23;20027;-93
2021/03/09 07:21:41;;;;;;;93.05;32.47;;;5.40;93.40;;;;;;6040916;23;20393;-87
2021/03/09 07:24:07;;;;;;;100.00;32.10;;;5.40;93.50;;;;;;6035067;23;20019;-88
2021/03/09 07:26:37;;;;;;;86.03;29.55;;;5.40;93.40;;;;;;6036405;23;20027;-88
2021/03/09 07:29:11;;;;;;;82.60;29.15;;;5.50;93.50;;;;;;6038048;23;20397;-88
2021/03/09 07:31:40;;;;;;;108.75;31.52;;;5.50;93.60;;;;;;6100370;23;20076;-87
2021/03/09 07:34:08;;;;;;;47.70;22.77;;;5.50;93.60;;;;;;6123415;23;20085;-87
2021/03/09 07:36:43;;;;;;;61.55;24.80;;;5.60;93.60;;;;;;6120619;23;20258;-87
2021/03/09 07:39:13;;;;;;;68.38;25.25;;;5.60;93.30;;;;;;6212882;23;20040;-88
2021/03/09 07:41:55;;;;;;;67.45;24.50;;;5.60;93.50;;;;;;6214741;23;20031;-88
2021/03/09 07:44:48;;;;;;;54.47;23.10;;;5.60;93.40;;;;;;6208661;23;20021;-87
2021/03/09 07:47:32;;;;;;;62.13;23.40;;;5.60;93.40;;;;;;6214302;23;20326;-88
2021/03/09 07:50:02;;;;;;;93.10;26.38;;;5.60;93.40;;;;;;6215163;23;20013;-87
2021/03/09 07:52:58;;;;;;;49.33;21.63;;;5.70;93.30;;;;;;6215882;23;20127;-87
2021/03/09 07:55:57;;;;;;;76.70;24.35;;;5.70;93.20;;;;;;6215029;23;20457;-89
2021/03/09 07:58:26;;;;;;;60.30;22.85;;;5.70;93.40;;;;;;6215376;23;20047;-87
2021/03/09 08:01:46;;;;;;;64.35;22.15;;;5.70;93.40;;;;;;6214802;23;20063;-89
2021/03/09 08:04:15;;;;;;;59.15;22.45;;;5.70;93.30;;;;;;6136899;23;20020;-87
2021/03/09 08:06:53;;;;;;;69.15;22.70;;;5.70;93.30;;;;;;6215190;23;20084;-88
2021/03/09 08:09:38;;;;;;;61.83;22.02;;;5.80;93.40;;;;;;6215038;23;20023;-89
2021/03/09 08:12:39;;;;;;;56.60;20.98;;;5.80;93.40;;;;;;6212213;23;20078;-87
2021/03/09 08:15:22;;;;;;;60.72;20.48;;;5.80;93.40;;;;;;6215709;23;20045;-87
2021/03/09 08:18:19;;;;;;;71.30;21.38;;;5.80;93.40;;;;;;6215363;23;20035;-88
2021/03/09 08:20:58;;;;;;;60.83;21.10;;;5.80;93.40;;;;;;6215743;23;20039;-87
2021/03/09 08:24:00;;;;;;;60.75;20.00;;;5.80;93.40;;;;;;6093985;23;20073;-87
2021/03/09 08:26:47;;;;;;;;;;;;;;;;;;;;;
2021/03/09 08:29:42;;;;;;;53.60;19.73;;;5.80;93.40;;;;;;6033197;23;20027;-87
2021/03/09 08:32:30;;;;;;;54.85;20.58;;;5.80;93.30;;;;;;6095018;23;20051;-88
2021/03/09 08:35:11;;;;;;;58.50;20.60;;;5.80;93.30;;;;;;6094819;23;20022;-88
2021/03/09 08:37:38;;;;;;;54.70;20.83;;;5.90;93.30;;;;;;6094103;23;20204;-87
2021/03/09 08:40:16;;;;;;;60.72;21.38;;;5.90;93.40;;;;;;6093577;23;20017;-88
2021/03/09 08:43:03;;;;;;;44.40;19.98;;;5.90;93.40;;;;;;6094130;23;20019;-88
2021/03/09 09:07:43;;;;;;;50.67;23.25;;;5.90;93.20;;;;;;6095090;23;20033;-89
2021/03/09 09:10:23;;;;;;;53.03;24.85;;;5.90;93.20;;;;;;6093889;23;20038;-88
2021/03/09 09:16:41;;;;;;;46.58;22.58;;;6.00;93.20;;;;;;6232683;22;20089;-87
2021/03/09 09:19:19;;;;;;;69.35;31.77;;;6.00;93.10;;;;;;6247604;23;20022;-89
2021/03/09 09:35:07;;;;;;;58.42;31.40;;;6.10;93.40;;;;;;6223016;23;20018;-91
2021/03/09 09:38:20;;;;;;;47.40;27.52;;;6.10;93.30;;;;;;6218415;23;20017;-89
2021/03/09 09:40:53;;;;;;;41.30;23.75;;;6.10;93.30;;;;;;6223448;23;20031;-90
2021/03/09 09:50:13;;;;;;;39.90;23.58;;;6.10;93.20;;;;;;6180501;23;20032;-90
2021/03/09 09:53:49;;;;;;;41.08;24.25;;;6.10;93.10;;;;;;6218384;23;20066;-90
2021/03/09 09:59:34;;;;;;;39.28;22.83;;;6.10;93.10;;;;;;6247659;23;20020;-90
2021/03/09 10:02:46;;;;;;;50.78;29.23;;;6.10;92.90;;;;;;6248940;23;20380;-91
2021/03/09 10:16:15;;;;;;;44.80;25.85;;;6.10;93.00;;;;;;6182033;23;20342;-88
2021/03/09 10:23:26;;;;;;;39.47;24.17;;;6.10;93.10;;;;;;6222944;23;20028;-89
2021/03/09 10:26:13;;;;;;;41.75;24.92;;;6.10;93.00;;;;;;6241758;23;20073;-87
2021/03/09 10:37:26;;;;;;;37.33;22.52;;;6.20;93.00;;;;;;6122658;23;20412;-87
2021/03/09 11:00:36;;;;;;;35.10;21.90;;;6.20;92.80;;;;;;6246753;23;20058;-89
2021/03/09 11:03:56;;;;;;;32.45;21.17;;;6.20;92.70;;;;;;6095536;23;20093;-90
2021/03/09 11:06:48;;;;;;;31.33;20.77;;;6.20;92.70;;;;;;6088230;23;20093;-90
2021/03/09 11:09:47;;;;;;;35.47;21.83;;;6.20;92.70;;;;;;6072170;23;20022;-91
2021/03/09 11:19:36;;;;;;;38.42;23.08;;;6.20;92.70;;;;;;6097351;23;20050;-92
2021/03/09 11:22:13;;;;;;;32.83;21.45;;;6.20;92.60;;;;;;6094257;23;20451;-91
2021/03/09 11:27:49;;;;;;;31.00;20.90;;;6.20;92.60;;;;;;6038741;23;20053;-92
2021/03/09 11:33:42;;;;;;;34.08;20.75;;;6.20;92.70;;;;;;6239324;23;20028;-92
2021/03/09 11:36:42;;;;;;;33.10;20.27;;;6.30;92.70;;;;;;6247309;23;20452;-92
2021/03/09 11:39:15;;;;;;;29.63;19.30;;;6.30;92.70;;;;;;6247106;23;20065;-91
2021/03/09 11:41:40;;;;;;;34.38;20.85;;;6.30;92.60;;;;;;6243856;22;20358;-91
2021/03/09 11:44:19;;;;;;;32.15;20.48;;;6.30;92.60;;;;;;6247218;23;20046;-91
2021/03/09 11:57:54;;;;;;;28.17;18.67;;;6.30;92.60;;;;;;6216924;23;20027;-91
2021/03/09 12:17:52;;;;;;;26.05;17.65;;;6.40;92.50;;;;;;6199826;23;20024;-89
2021/03/09 12:36:36;;;;;;;32.75;19.88;;;6.40;92.40;;;;;;6214422;22;20102;-91
2021/03/09 12:54:56;;;;;;;34.30;20.40;;;6.50;92.40;;;;;;6241514;23;20031;-88
2021/03/09 12:57:47;;;;;;;35.08;21.52;;;6.50;92.30;;;;;;6247212;23;20109;-87
2021/03/09 13:00:15;;;;;;;31.55;20.75;;;6.50;92.30;;;;;;6248462;23;20039;-87
2021/03/09 13:07:26;;;;;;;;;;;;;;;;;;;;;
2021/03/09 13:27:51;;;;;;;33.05;20.92;;;6.60;92.30;;;;;;6248069;23;20081;-93
2021/03/09 13:34:46;;;;;;;37.20;21.65;;;6.60;92.30;;;;;;6156141;23;20480;-93
2021/03/09 13:41:45;;;;;;;32.95;19.92;;;6.60;92.30;;;;;;6040034;23;20043;-95
2021/03/09 13:48:10;;;;;;;37.95;22.10;;;6.60;92.30;;;;;;5955672;24;20108;-91
2021/03/09 13:51:28;;;;;;;33.72;20.52;;;6.70;92.30;;;;;;5872904;24;20101;-88
2021/03/09 13:54:55;;;;;;;38.10;23.17;;;6.70;92.30;;;;;;5834299;24;20070;-88
2021/03/09 13:57:47;;;;;;;34.17;20.67;;;6.70;92.30;;;;;;5872489;24;20022;-90
2021/03/09 14:00:13;;;;;;;33.38;21.25;;;6.70;92.30;;;;;;5984124;23;20028;-90
2021/03/09 14:06:28;;;;;;;;;;;;;;;;;;;;;
2021/03/09 14:09:20;;;;;;;34.75;20.80;;;6.80;92.40;;;;;;6177148;23;20032;-89
2021/03/09 14:12:06;;;;;;;31.38;21.17;;;6.80;92.20;;;;;;6250600;23;20027;-90
2021/03/09 14:19:02;;;;;;;35.15;21.33;;;6.80;92.30;;;;;;6247683;23;20014;-88
2021/03/09 14:21:40;;;;;;;33.03;20.10;;;6.80;92.30;;;;;;6248096;23;20020;-90
2021/03/09 14:24:14;;;;;;;32.45;20.40;;;6.80;92.30;;;;;;6247442;23;20059;-93
2021/03/09 14:26:41;;;;;;;34.08;21.02;;;6.80;92.30;;;;;;6248180;23;20019;-92
2021/03/09 14:29:06;;;;;;;31.38;20.50;;;6.90;92.30;;;;;;6248418;23;20016;-92
2021/03/09 14:32:00;;;;;;;33.78;20.65;;;6.90;92.30;;;;;;6240943;23;20034;-91
2021/03/09 14:38:56;;;;;;;28.27;18.08;;;6.90;92.40;;;;;;6247504;23;20070;-91
2021/03/09 14:41:22;;;;;;;28.75;19.88;;;6.90;92.20;;;;;;6097012;23;20034;-91
2021/03/09 14:44:02;;;;;;;29.85;20.20;;;6.90;92.20;;;;;;6096819;23;20074;-93
2021/03/09 14:46:40;;;;;;;28.40;18.60;;;6.90;92.20;;;;;;6096630;23;20476;-91
2021/03/09 14:49:42;;;;;;;30.10;19.08;;;6.90;92.20;;;;;;6097077;23;20025;-92
2021/03/09 14:52:14;;;;;;;23.83;15.35;;;6.90;92.30;;;;;;6095970;23;20026;-91
2021/03/09 14:55:05;;;;;;;28.58;19.20;;;6.80;92.10;;;;;;6096520;23;20019;-92
2021/03/09 14:57:47;;;;;;;29.80;19.10;;;6.90;92.20;;;;;;6096024;23;20019;-93
2021/03/09 15:11:49;;;;;;;22.30;14.85;;;6.70;91.80;;;;;;6157050;23;20029;-86
2021/03/09 15:15:35;;;;;;;21.60;16.10;;;6.70;91.80;;;;;;6123786;23;20028;-86
2021/03/09 15:36:12;;;;;;;;;;;;;;;;;;;;;
2021/03/09 16:07:43;;;;;;;15.50;10.75;;;6.70;91.70;;;;;;6247789;23;20506;-92
2021/03/09 16:10:34;;;;;;;15.50;10.00;;;6.70;91.70;;;;;;6208516;23;20020;-93
2021/03/09 16:13:00;;;;;;;13.70;9.05;;;6.70;91.50;;;;;;6248675;23;20027;-91
2021/03/09 16:15:48;;;;;;;17.67;13.10;;;6.60;91.40;;;;;;6247366;23;20016;-91
2021/03/09 16:29:41;;;;;;;14.30;10.75;;;6.50;91.30;;;;;;6258923;23;20042;-93
2021/03/09 16:35:48;;;;;;;16.48;11.77;;;6.50;91.40;;;;;;6251761;23;20076;-94
2021/03/09 16:42:12;;;;;;;16.23;11.80;;;6.40;91.20;;;;;;6240259;23;20016;-93
2021/03/09 16:48:45;;;;;;;13.18;10.13;;;6.40;91.60;;;;;;6255573;22;20517;-92
2021/03/09 16:55:06;;;;;;;14.38;10.70;;;6.40;91.60;;;;;;6248468;23;20063;-92
2021/03/09 16:57:47;;;;;;;14.43;11.25;;;6.40;91.70;;;;;;6247465;23;20027;-92
2021/03/09 17:01:12;;;;;;;15.27;11.25;;;6.40;91.70;;;;;;6246506;23;20020;-94
2021/03/09 17:03:44;;;;;;;14.52;10.80;;;6.40;91.60;;;;;;6095866;23;20046;-92
2021/03/09 17:06:10;;;;;;;15.52;11.40;;;6.40;91.80;;;;;;6228779;23;20033;-92
2021/03/09 17:23:52;;;;;;;14.38;11.32;;;6.40;91.90;;;;;;6198789;22;20028;-91
2021/03/09 17:41:36;;;;;;;14.88;10.82;;;6.30;91.90;;;;;;6244320;23;20050;-87
2021/03/09 17:44:17;;;;;;;13.37;10.23;;;6.30;91.90;;;;;;6246853;23;20020;-86
2021/03/09 17:47:01;;;;;;;15.52;11.32;;;6.40;91.90;;;;;;6246748;23;20301;-86
2021/03/09 17:49:27;;;;;;;14.98;11.40;;;6.40;91.90;;;;;;6246379;23;20012;-86
2021/03/09 17:52:09;;;;;;;15.02;11.77;;;6.30;91.90;;;;;;6247227;23;20016;-86
2021/03/09 17:54:44;;;;;;;15.80;10.60;;;6.30;92.00;;;;;;6247159;23;20023;-86
2021/03/09 17:57:19;;;;;;;14.57;11.13;;;6.40;92.00;;;;;;6245325;23;20508;-86
2021/03/09 18:00:00;;;;;;;15.07;10.98;;;6.30;91.90;;;;;;6246881;23;20013;-86
2021/03/09 18:02:38;;;;;;;13.70;10.57;;;6.40;92.00;;;;;;6245872;23;20084;-87
2021/03/09 18:05:11;;;;;;;12.98;10.35;;;6.30;92.00;;;;;;6246130;23;20015;-87
2021/03/09 18:07:48;;;;;;;11.83;9.40;;;6.30;92.00;;;;;;6244597;23;20472;-86
2021/03/09 18:10:17;;;;;;;16.40;10.82;;;6.30;91.80;;;;;;6243398;23;20016;-86
2021/03/09 18:13:04;;;;;;;13.15;9.55;;;6.30;91.80;;;;;;6246700;23;20037;-87
2021/03/09 18:15:38;;;;;;;15.38;10.85;;;6.30;91.70;;;;;;6247044;23;20135;-86
2021/03/09 18:18:16;;;;;;;13.50;10.73;;;6.20;91.50;;;;;;6244776;23;20019;-86
2021/03/09 18:21:00;;;;;;;15.20;11.48;;;6.20;91.40;;;;;;6247435;23;20045;-87
2021/03/09 18:23:29;;;;;;;;;;;6.30;91.60;;;;;;6244733;23;20020;-86
2021/03/09 18:25:55;;;;;;;16.35;11.35;;;6.20;91.50;;;;;;6246227;23;20396;-86
2021/03/09 18:28:21;;;;;;;13.23;10.57;;;6.10;91.80;;;;;;6246083;23;20024;-86
2021/03/09 18:30:53;;;;;;;13.68;10.63;;;6.20;91.80;;;;;;6243376;23;20455;-86
2021/03/09 18:33:21;;;;;;;14.40;11.52;;;6.20;91.80;;;;;;6246589;23;20016;-86
2021/03/09 18:36:19;;;;;;;14.30;10.50;;;6.10;91.80;;;;;;6247357;23;20016;-86
2021/03/09 18:38:48;;;;;;;14.75;11.00;;;6.10;91.70;;;;;;6245726;23;20058;-86
2021/03/09 18:41:46;;;;;;;16.80;12.63;;;6.10;91.70;;;;;;6246327;23;20024;-89
2021/03/09 18:44:20;;;;;;;14.85;11.68;;;6.10;91.70;;;;;;6245585;23;20090;-85
2021/03/09 18:46:58;;;;;;;15.43;12.50;;;6.00;91.80;;;;;;6246819;23;20089;-88
2021/03/09 18:49:25;;;;;;;13.48;11.05;;;6.10;92.00;;;;;;6246754;23;20383;-88
2021/03/09 18:51:51;;;;;;;15.52;12.52;;;6.00;91.90;;;;;;6246402;23;20090;-87
2021/03/09 18:57:42;;;;;;;15.30;11.88;;;6.00;91.60;;;;;;6208939;23;20467;-87
2021/03/09 19:00:11;;;;;;;13.13;10.93;;;6.00;91.70;;;;;;6215323;23;20082;-87
2021/03/09 19:25:04;;;;;;;16.33;13.35;;;5.80;91.70;;;;;;6246851;23;20487;-87
2021/03/09 19:28:03;;;;;;;15.35;12.48;;;5.90;91.90;;;;;;6245486;23;20457;-86
2021/03/09 19:42:10;;;;;;;14.63;11.70;;;5.80;92.00;;;;;;6243710;23;20004;-86
2021/03/09 19:49:33;;;;;;;14.73;11.82;;;5.80;92.10;;;;;;6245177;23;20383;-86
2021/03/09 19:52:29;;;;;;;15.85;12.85;;;5.80;92.00;;;;;;6242332;23;20070;-86
2021/03/09 19:55:01;;;;;;;13.02;10.27;;;5.80;91.90;;;;;;6242821;23;20035;-85
2021/03/09 19:58:21;;;;;;;16.17;13.45;;;5.80;91.50;;;;;;6245602;23;20012;-86
2021/03/09 20:01:02;;;;;;;16.45;13.40;;;5.70;91.60;;;;;;6243448;23;20016;-86
2021/03/09 20:03:44;;;;;;;15.63;12.45;;;5.70;91.80;;;;;;6227524;23;20326;-85
2021/03/09 20:06:25;;;;;;;16.88;13.35;;;5.70;91.90;;;;;;6240606;23;20012;-85
2021/03/09 20:09:03;;;;;;;14.82;12.25;;;5.70;91.90;;;;;;6242137;23;20322;-85
2021/03/09 20:11:42;;;;;;;15.73;12.38;;;5.70;92.40;;;;;;6245002;23;20016;-85
2021/03/09 20:14:23;;;;;;;15.75;12.35;;;5.70;92.10;;;;;;6248641;23;20158;-85
2021/03/09 20:16:51;;;;;;;16.48;13.30;;;5.70;92.20;;;;;;6244775;23;20379;-86
2021/03/09 20:19:22;;;;;;;14.32;12.18;;;5.70;92.10;;;;;;6242449;23;20379;-86
2021/03/09 20:21:50;;;;;;;15.40;12.40;;;5.70;92.20;;;;;;6243954;23;20368;-86
2021/03/09 20:24:20;;;;;;;14.50;11.85;;;5.70;92.20;;;;;;6243298;23;20020;-87
2021/03/09 20:26:52;;;;;;;14.13;12.23;;;5.70;92.00;;;;;;6244278;23;20352;-86
2021/03/09 20:29:45;;;;;;;15.10;12.13;;;5.70;91.90;;;;;;6245641;23;20055;-87
2021/03/09 20:32:14;;;;;;;15.90;12.90;;;5.70;92.00;;;;;;6245067;23;20024;-87
2021/03/09 20:35:14;;;;;;;14.82;12.13;;;5.70;92.00;;;;;;6245502;23;20429;-87
2021/03/09 20:38:26;;;;;;;16.13;12.30;;;5.70;92.10;;;;;;6218918;23;20024;-88
2021/03/09 20:41:31;;;;;;;13.73;11.23;;;5.60;92.10;;;;;;6246242;23;20028;-86
2021/03/09 20:44:23;;;;;;;13.07;11.00;;;5.60;92.10;;;;;;6245356;23;20023;-89
2021/03/09 21:03:41;;;;;;;15.18;12.45;;;5.60;92.20;;;;;;6152728;23;20057;-88
2021/03/09 21:09:24;;;;;;;15.63;11.73;;;5.50;92.20;;;;;;6244309;23;20038;-88
2021/03/09 21:12:08;;;;;;;15.27;12.70;;;5.60;92.10;;;;;;6245368;23;20062;-88
2021/03/09 21:17:57;;;;;;;15.48;12.63;;;5.50;92.20;;;;;;6242987;23;20020;-87
2021/03/09 21:21:16;;;;;;;14.95;12.63;;;5.60;92.20;;;;;;6247444;23;20012;-88
2021/03/09 21:41:54;;;;;;;16.10;12.77;;;5.40;92.20;;;;;;6159808;23;20021;-87